createdAt,value
2023-04-16T00:00:39.480Z,21.25
2023-04-16T00:03:25.281Z,18.35
2023-04-16T00:06:12.350Z,22.10
2023-04-16T00:08:39.176Z,12.98
2023-04-16T00:11:06.091Z,16.58
2023-04-16T00:13:32.978Z,20.48
2023-04-16T00:15:59.677Z,21.23
2023-04-16T00:18:27.659Z,15.00
2023-04-16T00:20:54.762Z,16.58
2023-04-16T00:23:22.814Z,24.60
2023-04-16T00:25:49.661Z,19.67
2023-04-16T00:28:16.553Z,22.48
2023-04-16T00:30:43.259Z,21.05
2023-04-16T00:33:10.085Z,17.42
2023-04-16T00:35:36.799Z,23.25
2023-04-16T00:38:03.603Z,24.58
2023-04-16T00:40:30.698Z,28.33
2023-04-16T00:43:24.878Z,20.00
2023-04-16T00:45:57.344Z,25.33
2023-04-16T00:48:27.834Z,26.60
2023-04-16T00:50:55.463Z,18.55
2023-04-16T00:53:22.624Z,23.08
2023-04-16T00:55:49.461Z,29.77
2023-04-16T00:58:17.145Z,20.67
2023-04-16T01:03:46.532Z,19.58
2023-04-16T01:06:32.275Z,19.42
2023-04-16T01:08:59.057Z,25.27
2023-04-16T01:11:25.865Z,18.42
2023-04-16T01:13:52.878Z,21.02
2023-04-16T01:16:19.677Z,25.98
2023-04-16T01:18:46.819Z,19.65
2023-04-16T01:21:13.598Z,18.63
2023-04-16T01:23:40.574Z,19.77
2023-04-16T01:26:07.466Z,18.65
2023-04-16T01:28:34.213Z,19.40
2023-04-16T01:31:01.078Z,19.70
2023-04-16T01:34:06.166Z,22.42
2023-04-16T01:36:34.601Z,16.08
2023-04-16T01:39:01.415Z,17.08
2023-04-16T01:41:28.137Z,19.00
2023-04-16T01:43:54.873Z,19.63
2023-04-16T01:46:29.147Z,25.52
2023-04-16T01:48:56.654Z,25.60
2023-04-16T01:51:24.109Z,22.23
2023-04-16T01:53:51.206Z,24.92
2023-04-16T01:56:18.029Z,31.55
2023-04-16T01:58:46.150Z,17.17
2023-04-16T02:01:14.231Z,23.02
2023-04-16T02:03:41.907Z,20.17
2023-04-16T02:06:09.006Z,19.23
2023-04-16T02:08:36.020Z,26.67
2023-04-16T02:11:02.762Z,30.05
2023-04-16T02:13:29.700Z,24.73
2023-04-16T02:15:56.623Z,15.15
2023-04-16T02:19:02.345Z,26.85
2023-04-16T02:21:32.019Z,28.77
2023-04-16T02:23:58.918Z,22.13
2023-04-16T02:26:29.786Z,18.10
2023-04-16T02:29:01.814Z,20.58
2023-04-16T02:31:47.136Z,21.27
2023-04-16T02:34:14.760Z,13.07
2023-04-16T02:36:42.014Z,23.48
2023-04-16T02:39:08.905Z,17.50
2023-04-16T02:41:36.154Z,19.13
2023-04-16T02:44:02.944Z,14.43
2023-04-16T02:46:29.834Z,20.73
2023-04-16T02:48:56.661Z,16.83
2023-04-16T02:51:23.462Z,16.25
2023-04-16T02:53:50.577Z,17.65
2023-04-16T02:56:17.386Z,10.68
2023-04-16T02:58:44.134Z,18.57
2023-04-16T03:01:11.050Z,17.43
2023-04-16T03:03:38.000Z,22.92
2023-04-16T03:06:04.832Z,15.27
2023-04-16T03:08:32.009Z,23.65
2023-04-16T03:10:58.834Z,20.48
2023-04-16T03:13:25.921Z,19.05
2023-04-16T03:15:52.708Z,19.67
2023-04-16T03:18:19.654Z,17.03
2023-04-16T03:20:46.669Z,24.10
2023-04-16T03:23:13.487Z,18.43
2023-04-16T03:25:40.777Z,19.77
2023-04-16T03:28:09.145Z,17.30
2023-04-16T03:30:37.951Z,23.85
2023-04-16T03:33:06.154Z,24.70
2023-04-16T03:35:33.418Z,20.08
2023-04-16T03:38:00.158Z,23.23
2023-04-16T03:40:27.557Z,29.42
2023-04-16T03:42:54.877Z,20.17
2023-04-16T03:45:21.736Z,17.10
2023-04-16T03:47:52.873Z,16.42
2023-04-16T03:50:22.701Z,29.83
2023-04-16T03:52:49.530Z,24.80
2023-04-16T03:55:17.549Z,24.83
2023-04-16T03:57:45.048Z,23.33
2023-04-16T04:00:14.331Z,22.23
2023-04-16T04:03:00.100Z,23.65
2023-04-16T04:05:27.621Z,29.38
2023-04-16T04:07:54.412Z,28.73
2023-04-16T04:10:21.185Z,23.65
2023-04-16T04:12:47.898Z,22.27
2023-04-16T04:15:14.788Z,25.27
2023-04-16T04:17:42.541Z,21.27
2023-04-16T04:20:10.600Z,24.17
2023-04-16T04:22:37.379Z,19.98
2023-04-16T04:25:04.396Z,26.40
2023-04-16T04:27:32.618Z,24.77
2023-04-16T04:30:00.189Z,19.23
2023-04-16T04:32:27.698Z,19.35
2023-04-16T04:34:54.657Z,20.08
2023-04-16T04:37:21.442Z,24.90
2023-04-16T04:39:48.473Z,17.80
2023-04-16T04:42:18.347Z,15.25
2023-04-16T04:44:46.145Z,26.40
2023-04-16T04:47:13.628Z,18.33
2023-04-16T04:49:40.878Z,19.45
2023-04-16T04:52:08.427Z,21.90
2023-04-16T04:54:35.214Z,15.15
2023-04-16T04:57:02.463Z,20.58
2023-04-16T04:59:30.191Z,16.40
2023-04-16T05:01:57.052Z,13.57
2023-04-16T05:04:23.817Z,23.35
2023-04-16T05:07:09.510Z,14.80
2023-04-16T05:09:36.428Z,23.77
2023-04-16T05:12:04.012Z,20.05
2023-04-16T05:14:30.784Z,17.25
2023-04-16T05:16:57.630Z,17.63
2023-04-16T05:19:24.395Z,15.90
2023-04-16T05:21:51.221Z,16.90
2023-04-16T05:24:18.152Z,16.48
2023-04-16T05:26:44.920Z,15.15
2023-04-16T05:29:11.804Z,20.85
2023-04-16T05:31:38.711Z,12.35
2023-04-16T05:34:05.443Z,23.20
2023-04-16T05:36:32.218Z,15.70
2023-04-16T05:38:58.894Z,19.85
2023-04-16T05:41:25.836Z,20.77
2023-04-16T05:43:52.532Z,22.52
2023-04-16T05:46:19.246Z,17.08
2023-04-16T05:48:46.146Z,21.05
2023-04-16T05:51:12.921Z,23.15
2023-04-16T05:53:58.235Z,21.65
2023-04-16T05:56:25.573Z,16.35
2023-04-16T05:58:52.410Z,21.55
2023-04-16T06:01:19.124Z,22.63
2023-04-16T06:03:46.189Z,29.38
2023-04-16T06:06:13.285Z,18.98
2023-04-16T06:08:40.017Z,22.65
2023-04-16T06:11:06.858Z,21.77
2023-04-16T06:13:33.548Z,29.15
2023-04-16T06:16:00.593Z,15.60
2023-04-16T06:18:27.425Z,21.77
2023-04-16T06:20:54.289Z,25.75
2023-04-16T06:26:05.716Z,21.95
2023-04-16T06:28:32.483Z,15.00
2023-04-16T06:31:00.598Z,16.48
2023-04-16T06:33:27.406Z,21.10
2023-04-16T06:35:54.192Z,19.45
2023-04-16T06:38:20.974Z,16.48
2023-04-16T06:40:49.630Z,24.05
2023-04-16T06:43:17.984Z,20.42
2023-04-16T06:45:45.372Z,19.90
2023-04-16T06:48:12.183Z,25.20
2023-04-16T06:50:38.984Z,17.98
2023-04-16T06:53:24.577Z,15.50
2023-04-16T06:55:51.947Z,15.80
2023-04-16T06:58:37.753Z,14.63
2023-04-16T07:01:05.429Z,15.30
2023-04-16T07:03:32.543Z,16.20
2023-04-16T07:05:59.393Z,21.60
2023-04-16T07:08:26.248Z,13.43
2023-04-16T07:10:53.920Z,19.30
2023-04-16T07:13:21.694Z,7.53
2023-04-16T07:15:48.529Z,13.00
2023-04-16T07:18:15.888Z,11.18
2023-04-16T07:20:42.747Z,12.35
2023-04-16T07:23:09.550Z,5.13
2023-04-16T07:25:36.311Z,7.65
2023-04-16T07:28:04.072Z,8.85
2023-04-16T07:30:34.795Z,4.63
2023-04-16T07:33:06.270Z,9.05
2023-04-16T07:35:33.164Z,7.38
2023-04-16T07:37:59.898Z,7.15
2023-04-16T07:40:26.789Z,6.95
2023-04-16T07:42:54.536Z,8.65
2023-04-16T07:45:41.495Z,9.45
2023-04-16T07:48:08.449Z,8.68
2023-04-16T07:50:35.184Z,9.98
2023-04-16T07:53:02.007Z,5.07
2023-04-16T07:55:47.481Z,6.63
2023-04-16T07:58:14.192Z,9.02
2023-04-16T08:00:41.033Z,8.55
2023-04-16T08:03:07.915Z,4.53
2023-04-16T08:05:34.777Z,4.05
2023-04-16T08:08:20.042Z,3.30
2023-04-16T08:10:46.866Z,4.80
2023-04-16T08:13:13.693Z,2.50
2023-04-16T08:15:40.893Z,3.78
2023-04-16T08:18:12.858Z,3.55
2023-04-16T08:20:58.632Z,2.95
2023-04-16T08:26:09.840Z,5.82
2023-04-16T08:28:55.550Z,3.53
2023-04-16T08:31:22.415Z,1.23
2023-04-16T08:33:49.216Z,9.18
2023-04-16T08:36:34.476Z,2.70
2023-04-16T08:39:01.244Z,4.47
2023-04-16T08:41:32.306Z,3.13
2023-04-16T08:44:01.610Z,4.28
2023-04-16T08:46:30.061Z,1.73
2023-04-16T08:48:59.335Z,4.32
2023-04-16T08:51:30.017Z,1.55
2023-04-16T08:54:05.111Z,3.60
2023-04-16T08:56:32.507Z,2.42
2023-04-16T08:59:02.035Z,6.00
2023-04-16T09:01:29.542Z,1.70
2023-04-16T09:03:56.595Z,2.35
2023-04-16T09:06:23.693Z,3.85
2023-04-16T09:09:10.094Z,3.25
2023-04-16T09:11:56.542Z,3.25
2023-04-16T09:14:23.406Z,3.40
2023-04-16T09:16:53.552Z,2.83
2023-04-16T09:19:20.516Z,2.13
2023-04-16T09:21:48.098Z,2.95
2023-04-16T09:24:14.883Z,1.00
2023-04-16T09:26:45.447Z,4.53
2023-04-16T09:29:12.421Z,1.52
2023-04-16T09:31:39.448Z,3.50
2023-04-16T09:34:08.638Z,2.92
2023-04-16T09:36:36.557Z,5.28
2023-04-16T09:39:04.214Z,2.65
2023-04-16T09:41:32.999Z,5.85
2023-04-16T09:44:04.664Z,1.98
2023-04-16T09:46:35.648Z,2.28
2023-04-16T09:49:09.874Z,2.50
2023-04-16T09:51:38.134Z,1.52
2023-04-16T09:54:25.943Z,1.25
2023-04-16T09:56:57.014Z,2.45
2023-04-16T10:02:15.685Z,11.30
2023-04-16T10:04:53.096Z,3.65
2023-04-16T10:07:21.435Z,1.73
2023-04-16T10:09:49.472Z,1.58
2023-04-16T10:12:16.648Z,3.40
2023-04-16T10:14:43.503Z,2.15
2023-04-16T10:17:10.403Z,2.20
2023-04-16T10:19:37.563Z,3.95
2023-04-16T10:22:04.682Z,1.85
2023-04-16T10:24:34.348Z,0.30
2023-04-16T10:27:20.370Z,0.77
2023-04-16T10:29:49.086Z,2.15
2023-04-16T10:32:18.318Z,2.17
2023-04-16T10:34:45.652Z,5.47
2023-04-16T10:37:12.711Z,2.30
2023-04-16T10:39:39.563Z,2.92
2023-04-16T10:42:08.930Z,2.70
2023-04-16T10:44:36.605Z,2.60
2023-04-16T10:47:09.728Z,2.30
2023-04-16T10:49:36.564Z,6.35
2023-04-16T10:52:17.075Z,4.03
2023-04-16T10:55:03.013Z,3.78
2023-04-16T10:57:30.884Z,4.82
2023-04-16T10:59:59.386Z,4.25
2023-04-16T11:02:44.782Z,3.72
2023-04-16T11:05:12.783Z,2.83
2023-04-16T11:07:49.619Z,3.78
2023-04-16T11:10:16.708Z,2.17
2023-04-16T11:12:46.999Z,1.45
2023-04-16T11:18:04.412Z,1.33
2023-04-16T11:20:31.608Z,2.92
2023-04-16T11:22:58.488Z,2.95
2023-04-16T11:25:29.979Z,3.58
2023-04-16T11:28:00.459Z,3.63
2023-04-16T11:30:34.123Z,8.10
2023-04-16T11:33:11.547Z,4.97
2023-04-16T11:38:33.771Z,3.83
2023-04-16T11:41:00.544Z,2.65
2023-04-16T11:43:27.265Z,4.07
2023-04-16T11:46:07.507Z,3.60
2023-04-16T11:48:53.967Z,2.70
2023-04-16T11:51:21.872Z,3.72
2023-04-16T11:53:53.165Z,3.03
2023-04-16T11:56:30.738Z,8.07
2023-04-16T11:59:13.343Z,4.78
2023-04-16T12:01:42.809Z,4.32
2023-04-16T12:04:09.821Z,2.92
2023-04-16T12:06:37.311Z,3.35
2023-04-16T12:09:26.173Z,4.32
2023-04-16T12:11:54.080Z,3.95
2023-04-16T12:14:21.548Z,1.98
2023-04-16T12:16:48.451Z,3.03
2023-04-16T12:19:33.866Z,4.13
2023-04-16T12:22:01.070Z,5.03
2023-04-16T12:24:32.244Z,2.95
2023-04-16T12:27:03.245Z,1.63
2023-04-16T12:29:30.156Z,5.85
2023-04-16T12:31:56.902Z,1.77
2023-04-16T12:34:29.116Z,3.85
2023-04-16T12:37:10.638Z,3.40
2023-04-16T12:39:37.375Z,2.08
2023-04-16T12:42:05.954Z,1.73
2023-04-16T12:44:32.739Z,5.75
2023-04-16T12:46:59.468Z,3.03
2023-04-16T12:49:26.284Z,2.38
2023-04-16T12:51:53.060Z,4.15
2023-04-16T12:54:19.831Z,2.00
2023-04-16T12:56:46.846Z,4.68
2023-04-16T12:59:13.655Z,5.95
2023-04-16T13:01:40.523Z,3.17
2023-04-16T13:04:07.882Z,6.03
2023-04-16T13:06:53.639Z,7.05
2023-04-16T13:09:20.428Z,2.78
2023-04-16T13:11:47.344Z,3.03
2023-04-16T13:14:14.119Z,1.27
2023-04-16T13:16:40.798Z,3.83
2023-04-16T13:19:07.566Z,3.42
2023-04-16T13:21:34.715Z,8.68
2023-04-16T13:24:01.551Z,4.40
2023-04-16T13:26:28.278Z,2.13
2023-04-16T13:28:55.028Z,2.92
2023-04-16T13:31:22.433Z,2.15
2023-04-16T13:33:50.741Z,3.97
2023-04-16T13:36:17.765Z,6.70
2023-04-16T13:38:44.599Z,3.90
2023-04-16T13:41:11.721Z,2.15
2023-04-16T13:43:38.774Z,4.78
2023-04-16T13:46:05.772Z,4.38
2023-04-16T13:48:32.879Z,1.85
2023-04-16T13:50:59.679Z,3.20
2023-04-16T13:53:26.733Z,8.32
2023-04-16T13:55:53.505Z,4.03
2023-04-16T13:58:20.480Z,3.65
2023-04-16T14:00:47.544Z,4.57
2023-04-16T14:03:14.333Z,3.00
2023-04-16T14:05:41.385Z,4.75
2023-04-16T14:08:08.174Z,2.45
2023-04-16T14:10:35.119Z,6.80
2023-04-16T14:13:02.307Z,4.97
2023-04-16T14:15:30.026Z,2.10
2023-04-16T14:17:56.921Z,5.35
2023-04-16T14:20:23.862Z,3.47
2023-04-16T14:22:50.819Z,6.03
2023-04-16T14:25:17.705Z,7.20
2023-04-16T14:27:44.377Z,2.53
2023-04-16T14:30:11.403Z,5.55
2023-04-16T14:32:38.165Z,4.68
2023-04-16T14:35:05.787Z,4.85
2023-04-16T14:37:32.601Z,2.30
2023-04-16T14:40:00.892Z,2.00
2023-04-16T14:42:27.887Z,3.17
2023-04-16T14:44:54.661Z,3.45
2023-04-16T14:47:21.389Z,2.80
2023-04-16T14:49:48.186Z,3.75
2023-04-16T14:52:14.916Z,5.25
2023-04-16T14:54:41.692Z,3.15
2023-04-16T14:57:08.539Z,5.35
2023-04-16T14:59:35.306Z,2.88
2023-04-16T15:02:02.215Z,2.85
2023-04-16T15:04:30.120Z,5.50
2023-04-16T15:06:59.086Z,4.00
2023-04-16T15:09:29.711Z,2.42
2023-04-16T15:11:56.946Z,4.78
2023-04-16T15:14:24.006Z,8.05
2023-04-16T15:16:51.191Z,4.68
2023-04-16T15:19:17.996Z,5.53
2023-04-16T15:21:46.058Z,5.20
2023-04-16T15:24:14.338Z,4.75
2023-04-16T15:26:41.273Z,7.50
2023-04-16T15:33:21.529Z,5.65
2023-04-16T15:36:25.482Z,4.43
2023-04-16T15:38:52.518Z,7.72
2023-04-16T15:41:19.302Z,6.03
2023-04-16T15:43:46.341Z,3.08
2023-04-16T15:46:13.392Z,4.40
2023-04-16T15:48:40.497Z,5.50
2023-04-16T15:51:07.682Z,3.00
2023-04-16T15:53:53.578Z,7.30
2023-04-16T15:56:20.593Z,6.82
2023-04-16T15:58:47.730Z,4.50
2023-04-16T16:01:14.620Z,6.90
2023-04-16T16:03:41.677Z,6.63
2023-04-16T16:06:09.081Z,7.40
2023-04-16T16:08:37.838Z,7.97
2023-04-16T16:11:04.770Z,5.57
2023-04-16T16:13:31.782Z,8.65
2023-04-16T16:15:58.650Z,3.03
2023-04-16T16:18:25.625Z,8.40
2023-04-16T16:20:57.270Z,9.73
2023-04-16T16:23:24.278Z,11.25
2023-04-16T16:25:52.325Z,12.05
2023-04-16T16:28:19.207Z,10.60
2023-04-16T16:30:47.074Z,10.60
2023-04-16T16:33:15.530Z,14.57
2023-04-16T16:35:42.360Z,8.23
2023-04-16T16:38:09.691Z,7.43
2023-04-16T16:40:38.869Z,10.57
2023-04-16T16:43:05.946Z,13.35
2023-04-16T16:45:32.839Z,9.98
2023-04-16T16:47:59.690Z,8.65
2023-04-16T16:50:45.195Z,11.13
2023-04-16T16:53:11.951Z,14.45
2023-04-16T16:55:38.850Z,19.13
2023-04-16T16:58:05.640Z,18.15
2023-04-16T17:00:32.433Z,15.35
2023-04-16T17:02:59.398Z,13.95
2023-04-16T17:05:26.369Z,17.17
2023-04-16T17:07:53.229Z,17.60
2023-04-16T17:10:21.148Z,12.55
2023-04-16T17:12:52.209Z,19.70
2023-04-16T17:15:21.729Z,19.35
2023-04-16T17:20:33.932Z,16.85
2023-04-16T17:23:00.797Z,17.92
2023-04-16T17:25:46.240Z,14.93
2023-04-16T17:28:13.024Z,14.60
2023-04-16T17:30:39.808Z,15.27
2023-04-16T17:33:06.733Z,27.08
2023-04-16T17:35:33.872Z,18.75
2023-04-16T17:38:01.297Z,18.40
2023-04-16T17:40:28.041Z,20.15
2023-04-16T17:42:54.938Z,18.02
2023-04-16T17:45:21.771Z,18.92
2023-04-16T17:47:48.733Z,16.05
2023-04-16T17:50:15.709Z,18.08
2023-04-16T17:52:42.640Z,22.88
2023-04-16T17:55:11.337Z,18.58
2023-04-16T17:57:38.165Z,18.08
2023-04-16T18:00:12.524Z,20.38
2023-04-16T18:02:43.909Z,20.27
2023-04-16T18:05:11.377Z,18.25
2023-04-16T18:10:23.352Z,20.38
2023-04-16T18:12:50.171Z,16.58
2023-04-16T18:15:17.218Z,18.20
2023-04-16T18:17:44.030Z,22.60
2023-04-16T18:20:12.639Z,17.48
2023-04-16T18:22:39.439Z,16.10
2023-04-16T18:25:07.208Z,16.83
2023-04-16T18:27:34.363Z,22.58
2023-04-16T18:30:01.365Z,18.63
2023-04-16T18:32:31.177Z,20.42
2023-04-16T18:34:58.283Z,22.35
2023-04-16T18:37:25.109Z,17.92
2023-04-16T18:39:51.891Z,19.67
2023-04-16T18:42:18.744Z,17.73
2023-04-16T18:45:05.964Z,16.02
2023-04-16T18:47:34.722Z,24.65
2023-04-16T18:50:01.947Z,19.55
2023-04-16T18:52:28.767Z,18.30
2023-04-16T18:55:14.508Z,16.85
2023-04-16T18:57:41.351Z,15.70
2023-04-16T19:00:12.795Z,23.80
2023-04-16T19:05:24.385Z,23.83
2023-04-16T19:10:35.360Z,14.27
2023-04-16T19:13:02.119Z,18.23
2023-04-16T19:15:31.570Z,15.18
2023-04-16T19:17:59.516Z,16.63
2023-04-16T19:20:26.307Z,24.42
2023-04-16T19:22:53.368Z,15.15
2023-04-16T19:25:20.586Z,17.50
2023-04-16T19:27:47.364Z,20.65
2023-04-16T19:30:14.772Z,16.98
2023-04-16T19:32:41.590Z,17.60
2023-04-16T19:35:08.665Z,19.27
2023-04-16T19:37:35.436Z,28.17
2023-04-16T19:40:02.396Z,18.00
2023-04-16T19:42:29.114Z,17.70
2023-04-16T19:44:56.023Z,14.90
2023-04-16T19:47:22.808Z,22.88
2023-04-16T19:49:49.793Z,25.08
2023-04-16T19:52:38.798Z,21.67
2023-04-16T19:55:24.812Z,18.75
2023-04-16T19:57:51.566Z,15.85
2023-04-16T20:00:18.574Z,20.23
2023-04-16T20:02:45.718Z,16.42
2023-04-16T20:05:12.738Z,15.90
2023-04-16T20:07:39.544Z,16.73
2023-04-16T20:10:06.901Z,15.73
2023-04-16T20:12:33.698Z,14.35
2023-04-16T20:15:00.442Z,14.40
2023-04-16T20:17:27.295Z,14.70
2023-04-16T20:19:57.636Z,21.17
2023-04-16T20:22:24.711Z,19.17
2023-04-16T20:24:55.042Z,21.48
2023-04-16T20:27:22.012Z,22.15
2023-04-16T20:29:49.632Z,21.52
2023-04-16T20:32:16.815Z,20.27
2023-04-16T20:34:43.582Z,18.45
2023-04-16T20:37:10.374Z,21.48
2023-04-16T20:39:37.330Z,21.02
2023-04-16T20:42:10.070Z,21.92
2023-04-16T20:44:40.991Z,18.17
2023-04-16T20:47:08.547Z,21.15
2023-04-16T20:49:35.683Z,27.13
2023-04-16T20:52:02.855Z,25.48
2023-04-16T20:54:30.877Z,23.02
2023-04-16T20:56:58.354Z,17.60
2023-04-16T20:59:25.815Z,20.33
2023-04-16T21:01:52.748Z,22.90
2023-04-16T21:04:19.770Z,20.73
2023-04-16T21:06:47.130Z,20.75
2023-04-16T21:09:13.986Z,18.88
2023-04-16T21:11:40.838Z,24.58
2023-04-16T21:14:07.702Z,15.32
2023-04-16T21:16:34.745Z,19.08
2023-04-16T21:19:01.856Z,16.13
2023-04-16T21:21:47.172Z,24.83
2023-04-16T21:24:14.134Z,21.35
2023-04-16T21:26:40.953Z,25.30
2023-04-16T21:29:07.787Z,14.75
2023-04-16T21:31:34.680Z,16.77
2023-04-16T21:34:01.493Z,25.48
2023-04-16T21:36:29.264Z,26.27
2023-04-16T21:38:56.163Z,22.77
2023-04-16T21:41:22.955Z,18.17
2023-04-16T21:43:49.771Z,20.75
2023-04-16T21:46:16.668Z,19.80
2023-04-16T21:48:43.545Z,25.63
2023-04-16T21:51:10.489Z,21.40
2023-04-16T21:53:38.809Z,29.67
2023-04-16T21:56:06.498Z,21.80
2023-04-16T22:01:17.598Z,21.63
2023-04-16T22:03:44.553Z,25.63
2023-04-16T22:06:11.636Z,29.15
2023-04-16T22:08:39.635Z,25.00
2023-04-16T22:11:06.485Z,21.85
2023-04-16T22:13:33.332Z,30.10
2023-04-16T22:16:03.603Z,24.27
2023-04-16T22:18:33.847Z,27.35
2023-04-16T22:21:01.443Z,23.48
2023-04-16T22:23:28.206Z,25.85
2023-04-16T22:25:56.228Z,23.60
2023-04-16T22:28:23.480Z,24.25
2023-04-16T22:30:50.599Z,31.75
2023-04-16T22:33:17.571Z,22.90
2023-04-16T22:35:44.546Z,23.92
2023-04-16T22:40:55.630Z,30.52
2023-04-16T22:43:22.438Z,25.67
2023-04-16T22:45:49.325Z,21.75
2023-04-16T22:48:16.448Z,31.75
2023-04-16T22:50:48.679Z,22.33
2023-04-16T22:53:15.504Z,27.13
2023-04-16T22:55:42.271Z,23.17
2023-04-16T22:58:09.205Z,28.23
2023-04-16T23:00:36.107Z,26.00
2023-04-16T23:03:03.161Z,29.52
2023-04-16T23:05:29.992Z,23.80
2023-04-16T23:07:56.768Z,23.65
2023-04-16T23:10:23.521Z,26.10
2023-04-16T23:12:50.449Z,30.27
2023-04-16T23:15:17.516Z,29.48
2023-04-16T23:17:45.113Z,25.25
2023-04-16T23:20:13.362Z,32.45
2023-04-16T23:22:41.091Z,30.52
2023-04-16T23:25:11.444Z,31.85
2023-04-16T23:27:38.513Z,20.38
2023-04-16T23:30:05.901Z,26.10
2023-04-16T23:32:34.212Z,32.95
2023-04-16T23:35:01.110Z,28.42
2023-04-16T23:37:28.014Z,22.30
2023-04-16T23:39:54.803Z,23.50
2023-04-16T23:42:21.602Z,25.92
2023-04-16T23:47:32.670Z,28.23
2023-04-16T23:49:59.484Z,25.85
2023-04-16T23:52:26.323Z,24.27
2023-04-16T23:54:53.106Z,35.03
2023-04-16T23:57:19.904Z,29.45
2023-04-16T23:59:46.686Z,31.58
